Time;durP1;ratioP1;P1;durP2;ratioP2;P2;SDS_P1;SDS_P2;PMS_P1;PMS_P2;Temp;Humidity;BMP_temperature;BMP_pressure;BME280_temperature;BME280_humidity;BME280_pressure;Samples;Min_cycle;Max_cycle;Signal;HPM_P1;HPM_P2
2020/12/23 00:00:58;;;;;;;14.75;7.95;;;;;;;9.12;56.66;153509.39;1752499;80;21177;-63
2020/12/23 00:03:30;;;;;;;18.37;7.78;;;;;;;9.35;55.95;153569.61;1751220;81;21289;-64
2020/12/23 00:06:03;;;;;;;15.83;8.70;;;;;;;9.48;56.10;153602.37;1779206;80;21285;-64
2020/12/23 00:08:35;;;;;;;16.82;7.30;;;;;;;9.80;55.51;153686.17;1747407;81;21630;-64
2020/12/23 00:11:08;;;;;;;15.50;6.25;;;;;;;9.74;55.17;153670.44;1749314;81;21202;-64
2020/12/23 00:13:40;;;;;;;18.48;7.78;;;;;;;9.65;55.14;153646.86;1757311;81;21314;-64
2020/12/23 00:16:13;;;;;;;17.55;6.80;;;;;;;10.04;54.76;153751.73;1755552;81;21320;-64
2020/12/23 00:18:45;;;;;;;18.12;8.05;;;;;;;9.66;55.06;153649.48;1741247;81;21313;-63
2020/12/23 00:21:18;;;;;;;23.07;6.95;;;;;;;9.67;55.24;153652.12;1752650;81;21213;-64
2020/12/23 00:23:50;;;;;;;13.05;6.37;;;;;;;9.84;54.98;153699.25;1756248;81;21144;-64
2020/12/23 00:26:22;;;;;;;11.83;5.35;;;;;;;9.85;54.87;153701.86;1757452;81;21337;-64
2020/12/23 00:28:55;;;;;;;17.35;7.80;;;;;;;9.44;55.19;153593.16;1757230;81;21313;-64
2020/12/23 00:31:27;;;;;;;19.12;7.60;;;;;;;9.92;54.63;153720.23;1740767;81;21301;-64
2020/12/23 00:34:00;;;;;;;16.20;6.62;;;;;;;9.79;54.71;153684.84;1755970;81;21690;-64
2020/12/23 00:36:32;;;;;;;16.90;7.08;;;;;;;9.77;54.70;153679.64;1745478;81;21341;-64
2020/12/23 00:39:05;;;;;;;14.03;5.87;;;;;;;9.88;54.48;153708.45;1755494;81;21187;-64
2020/12/23 00:41:37;;;;;;;16.20;6.78;;;;;;;9.65;54.94;153646.86;1756365;81;21789;-64
2020/12/23 00:44:11;;;;;;;20.02;8.10;;;;;;;9.90;54.58;153713.64;1756394;81;21305;-64
2020/12/23 00:46:44;;;;;;;14.60;7.28;;;;;;;9.82;54.84;153692.70;1752516;81;21338;-63
2020/12/23 00:49:16;;;;;;;12.18;5.83;;;;;;;9.72;54.90;153665.23;1757158;81;21171;-64
2020/12/23 00:51:51;;;;;;;9.25;5.47;;;;;;;9.43;55.38;153590.53;1751859;81;21313;-63
2020/12/23 00:54:23;;;;;;;17.95;6.78;;;;;;;9.04;56.35;153488.47;1755641;81;21818;-63
2020/12/23 00:56:56;;;;;;;13.38;5.85;;;;;;;9.38;55.71;153577.47;1751505;81;21801;-63
2020/12/23 00:59:28;;;;;;;15.83;6.10;;;;;;;9.39;55.71;153580.09;1757288;81;21337;-64
2020/12/23 01:02:01;;;;;;;15.85;7.55;;;;;;;9.23;56.26;153536.91;1750149;81;21312;-64
2020/12/23 01:04:33;;;;;;;16.23;6.75;;;;;;;9.56;55.98;153623.31;1742811;82;21404;-63
2020/12/23 01:07:06;;;;;;;14.50;6.17;;;;;;;9.49;55.58;153606.28;1746359;81;21186;-64
2020/12/23 01:09:39;;;;;;;17.75;8.40;;;;;;;9.14;56.08;153513.34;1758957;81;21794;-64
2020/12/23 01:12:11;;;;;;;14.10;6.90;;;;;;;9.74;55.42;153670.44;1760817;81;21313;-64
2020/12/23 01:14:43;;;;;;;13.88;7.17;;;;;;;9.31;55.12;153557.83;1759783;81;22133;-64
2020/12/23 01:17:17;;;;;;;13.20;6.53;;;;;;;9.33;55.28;153564.36;1749082;81;21230;-64
2020/12/23 01:19:49;;;;;;;16.45;7.75;;;;;;;9.56;54.97;153623.31;1759564;81;21146;-64
2020/12/23 01:22:24;;;;;;;17.07;7.58;;;;;;;9.73;54.96;153667.80;1760431;81;21309;-64
2020/12/23 01:24:55;;;;;;;16.17;6.08;;;;;;;9.41;55.17;153585.34;1752248;81;21175;-64
2020/12/23 01:27:28;;;;;;;16.27;7.22;;;;;;;9.87;54.45;153707.11;1759944;81;21341;-64
2020/12/23 01:30:00;;;;;;;14.05;6.53;;;;;;;9.96;54.31;153730.69;1720736;81;21135;-64
2020/12/23 01:32:33;;;;;;;15.93;7.60;;;;;;;9.57;54.86;153627.22;1760405;81;21175;-64
2020/12/23 01:35:06;;;;;;;17.67;8.55;;;;;;;9.84;54.60;153699.25;1754711;81;21388;-64
2020/12/23 01:37:39;;;;;;;19.95;7.30;;;;;;;9.88;54.42;153708.45;1747304;82;21388;-63
2020/12/23 01:40:11;;;;;;;16.70;7.08;;;;;;;9.89;54.52;153712.36;1748618;81;21866;-64
2020/12/23 01:42:43;;;;;;;15.20;6.03;;;;;;;10.05;54.43;153753.02;1758308;81;21398;-64
2020/12/23 01:45:16;;;;;;;20.37;7.85;;;;;;;10.03;54.45;153749.11;1754911;81;21333;-64
2020/12/23 01:47:49;;;;;;;17.98;6.67;;;;;;;10.15;54.29;153780.55;1744369;81;21388;-64
2020/12/23 01:50:22;;;;;;;17.52;7.65;;;;;;;10.00;54.49;153739.94;1747558;81;21174;-63
2020/12/23 01:52:54;;;;;;;17.05;7.90;;;;;;;10.03;54.53;153749.11;1753478;81;21176;-64
2020/12/23 01:55:27;;;;;;;16.80;7.17;;;;;;;9.60;54.99;153635.09;1746921;81;21309;-64
2020/12/23 01:57:59;;;;;;;18.05;7.58;;;;;;;9.83;54.86;153694.05;1759870;81;21816;-73
2020/12/23 02:00:32;;;;;;;14.25;7.45;;;;;;;9.86;54.83;153704.50;1720167;81;21234;-61
2020/12/23 02:03:08;;;;;;;15.95;7.08;;;;;;;9.82;55.06;153692.70;1769470;81;22340;-63
2020/12/23 02:05:42;;;;;;;18.00;7.33;;;;;;;10.12;54.52;153772.67;1733458;81;21744;-62
2020/12/23 02:08:14;;;;;;;18.40;6.83;;;;;;;9.85;54.72;153701.86;1775407;79;21811;-61
2020/12/23 02:10:46;;;;;;;15.75;6.53;;;;;;;10.30;53.97;153819.83;1790702;80;21299;-61
2020/12/23 02:13:40;;;;;;;16.42;6.95;;;;;;;10.29;53.69;153815.91;1758919;80;21173;-63
2020/12/23 02:16:13;;;;;;;22.00;7.50;;;;;;;10.39;53.49;153843.45;1764463;81;21321;-61
2020/12/23 02:18:46;;;;;;;14.53;6.87;;;;;;;10.03;54.38;153747.77;1785662;80;21227;-62
2020/12/23 02:21:21;;;;;;;14.18;6.53;;;;;;;10.20;53.99;153793.63;1795756;79;21216;-62
2020/12/23 02:23:54;;;;;;;16.27;7.97;;;;;;;10.08;54.18;153760.89;1793171;79;21187;-62
2020/12/23 02:26:26;;;;;;;18.98;8.85;;;;;;;10.13;54.28;153773.97;1793074;80;21348;-65
2020/12/23 02:28:58;;;;;;;19.10;9.63;;;;;;;10.19;54.29;153791.00;1799042;78;21180;-62
2020/12/23 02:31:31;;;;;;;22.60;8.95;;;;;;;10.04;54.21;153751.73;1804136;79;21857;-62
2020/12/23 02:34:03;;;;;;;31.12;10.10;;;;;;;10.24;54.11;153804.12;1796390;78;21299;-64
2020/12/23 02:36:36;;;;;;;19.57;8.80;;;;;;;10.02;54.31;153745.14;1791923;79;21173;-62
2020/12/23 02:39:08;;;;;;;20.40;8.98;;;;;;;10.10;54.18;153766.14;1788967;79;21352;-62
2020/12/23 02:41:41;;;;;;;22.37;11.43;;;;;;;9.99;54.45;153737.31;1790241;78;21336;-62
2020/12/23 02:44:13;;;;;;;18.30;8.40;;;;;;;10.18;54.16;153788.42;1795215;80;21217;-62
2020/12/23 02:46:48;;;;;;;16.55;8.15;;;;;;;10.19;54.01;153789.72;1787342;80;21165;-62
2020/12/23 02:49:20;;;;;;;18.95;7.90;;;;;;;10.22;53.93;153797.59;1797101;79;21902;-62
2020/12/23 02:51:53;;;;;;;15.32;8.83;;;;;;;10.33;53.78;153826.41;1795790;79;21300;-62
2020/12/23 02:54:27;;;;;;;18.50;7.70;;;;;;;10.35;53.80;153831.66;1793704;79;21194;-62
2020/12/23 02:57:00;;;;;;;21.50;8.73;;;;;;;10.29;53.70;153817.25;1795984;80;21163;-62
2020/12/23 02:59:33;;;;;;;17.40;8.28;;;;;;;10.35;53.71;153832.95;1795528;80;21697;-62
2020/12/23 03:02:05;;;;;;;22.42;8.00;;;;;;;10.19;53.68;153791.00;1795673;79;21209;-62
2020/12/23 03:04:37;;;;;;;20.65;9.03;;;;;;;10.20;53.83;153792.34;1794708;79;21189;-62
2020/12/23 03:07:10;;;;;;;18.27;7.72;;;;;;;10.23;53.80;153801.50;1792378;79;21164;-61
2020/12/23 03:09:42;;;;;;;18.30;7.67;;;;;;;10.23;53.82;153800.22;1803634;79;21202;-61
2020/12/23 03:12:15;;;;;;;18.85;7.90;;;;;;;10.34;53.74;153829.03;1809990;79;21178;-62
2020/12/23 03:14:47;;;;;;;19.48;7.37;;;;;;;10.19;53.75;153791.00;1802200;79;21282;-62
2020/12/23 03:17:20;;;;;;;18.12;8.03;;;;;;;10.33;53.50;153826.41;1799624;80;21318;-62
2020/12/23 03:19:52;;;;;;;15.85;7.95;;;;;;;10.49;53.60;153869.66;1800214;79;21711;-62
2020/12/23 03:22:25;;;;;;;16.70;7.17;;;;;;;10.52;53.65;153877.53;1806498;79;21217;-62
2020/12/23 03:24:58;;;;;;;16.97;8.28;;;;;;;10.59;53.62;153894.58;1807307;79;21290;-62
2020/12/23 03:27:30;;;;;;;22.37;10.30;;;;;;;10.59;53.39;153895.86;1804301;78;21150;-62
2020/12/23 03:30:04;;;;;;;22.02;8.85;;;;;;;10.68;53.31;153919.44;1804376;79;21293;-61
2020/12/23 03:32:36;;;;;;;22.77;9.95;;;;;;;10.53;53.51;153880.11;1809619;79;21312;-62
2020/12/23 03:35:10;;;;;;;19.05;9.45;;;;;;;10.53;53.65;153880.11;1807733;79;21163;-65
2020/12/23 03:37:43;;;;;;;19.92;9.48;;;;;;;10.64;53.61;153909.00;1809823;79;21688;-62
2020/12/23 03:40:15;;;;;;;18.05;8.78;;;;;;;10.82;53.09;153957.45;1805814;79;21225;-62
2020/12/23 03:42:49;;;;;;;21.62;9.33;;;;;;;10.95;52.93;153991.55;1804945;79;21318;-64
2020/12/23 03:45:21;;;;;;;22.45;10.00;;;;;;;10.64;53.25;153909.00;1799520;78;21310;-62
2020/12/23 03:47:54;;;;;;;19.87;8.98;;;;;;;10.68;53.27;153919.44;1801845;79;21298;-63
2020/12/23 03:50:27;;;;;;;16.40;7.85;;;;;;;10.57;53.29;153890.61;1806056;78;21403;-65
2020/12/23 03:52:59;;;;;;;21.20;10.40;;;;;;;10.56;53.36;153887.98;1809112;79;21273;-63
2020/12/23 03:55:32;;;;;;;20.75;9.75;;;;;;;10.65;53.32;153911.56;1798828;79;21302;-62
2020/12/23 03:58:04;;;;;;;18.02;7.65;;;;;;;10.66;53.38;153912.91;1808568;79;21289;-63
2020/12/23 04:00:36;;;;;;;19.27;8.83;;;;;;;10.78;53.17;153944.38;1783219;79;21678;-63
2020/12/23 04:03:08;;;;;;;22.48;10.25;;;;;;;10.62;53.30;153903.75;1808561;79;21222;-62
2020/12/23 04:05:43;;;;;;;19.85;8.48;;;;;;;10.63;53.38;153905.03;1800539;79;21215;-62
2020/12/23 04:08:15;;;;;;;17.32;9.65;;;;;;;10.22;54.01;153797.59;1804812;79;21148;-63
2020/12/23 04:10:48;;;;;;;20.45;8.80;;;;;;;10.79;53.33;153949.63;1802833;79;21190;-63
2020/12/23 04:13:21;;;;;;;20.35;10.18;;;;;;;10.95;52.89;153991.55;1790280;78;21386;-62
2020/12/23 04:15:53;;;;;;;21.68;9.85;;;;;;;10.78;53.09;153945.66;1793914;80;21220;-62
2020/12/23 04:18:26;;;;;;;21.82;9.58;;;;;;;10.65;53.32;153910.28;1794799;79;21217;-62
2020/12/23 04:20:59;;;;;;;21.10;9.33;;;;;;;10.74;53.29;153933.86;1794017;79;21330;-63
2020/12/23 04:23:31;;;;;;;21.20;8.90;;;;;;;10.73;53.21;153932.58;1789777;80;21230;-64
2020/12/23 04:26:04;;;;;;;22.80;10.98;;;;;;;10.85;53.14;153964.05;1791196;80;21810;-63
2020/12/23 04:28:36;;;;;;;24.70;10.25;;;;;;;10.88;53.14;153971.87;1794042;79;21169;-63
2020/12/23 04:31:09;;;;;;;21.35;10.70;;;;;;;10.42;53.82;153851.28;1771508;80;21163;-62
2020/12/23 04:33:41;;;;;;;19.87;9.05;;;;;;;10.35;53.92;153832.95;1790712;80;21210;-63
2020/12/23 04:36:14;;;;;;;23.30;9.53;;;;;;;10.50;53.84;153870.94;1791255;79;21431;-66
2020/12/23 04:38:47;;;;;;;21.82;10.35;;;;;;;10.40;53.99;153846.08;1791109;78;21258;-63
2020/12/23 04:41:19;;;;;;;23.35;9.93;;;;;;;10.52;53.77;153876.19;1794820;80;21470;-63
2020/12/23 04:43:52;;;;;;;25.30;10.35;;;;;;;10.60;53.73;153898.48;1796312;79;21310;-62
2020/12/23 04:46:26;;;;;;;23.52;10.40;;;;;;;10.82;53.52;153956.16;1800629;79;21308;-65
2020/12/23 04:48:59;;;;;;;24.37;10.70;;;;;;;10.90;53.32;153977.12;1794494;79;21269;-64
2020/12/23 04:51:34;;;;;;;26.27;12.03;;;;;;;10.62;53.72;153903.75;1794410;80;21786;-62
2020/12/23 04:54:08;;;;;;;22.15;10.78;;;;;;;10.63;53.82;153905.03;1799217;79;21306;-62
2020/12/23 04:56:40;;;;;;;22.95;9.83;;;;;;;10.71;53.70;153927.31;1800713;79;21183;-62
2020/12/23 04:59:13;;;;;;;22.98;10.03;;;;;;;10.76;53.76;153940.45;1790783;79;21149;-62
2020/12/23 05:01:45;;;;;;;26.07;10.08;;;;;;;10.82;53.69;153957.45;1792309;79;21180;-62
2020/12/23 05:04:18;;;;;;;27.35;11.45;;;;;;;10.33;54.35;153826.41;1799011;79;21236;-62
2020/12/23 05:06:50;;;;;;;28.47;10.95;;;;;;;10.33;54.50;153826.41;1793541;79;21171;-63
2020/12/23 05:09:23;;;;;;;26.82;11.60;;;;;;;10.33;54.78;153826.41;1723414;80;21230;-66
2020/12/23 05:11:57;;;;;;;22.15;9.98;;;;;;;10.15;55.17;153780.55;1764438;80;21372;-63
2020/12/23 05:14:32;;;;;;;26.45;11.97;;;;;;;10.12;54.99;153771.39;1779534;79;21197;-64
2020/12/23 05:17:05;;;;;;;28.30;11.48;;;;;;;10.39;54.92;153842.11;1790001;78;21385;-65
2020/12/23 05:19:40;;;;;;;25.52;11.45;;;;;;;10.54;54.59;153882.73;1783813;79;21317;-64
2020/12/23 05:22:16;;;;;;;27.00;11.70;;;;;;;10.39;54.77;153843.45;1783657;79;22673;-66
2020/12/23 05:24:50;;;;;;;25.62;11.78;;;;;;;10.70;54.28;153923.41;1793408;79;21293;-66
2020/12/23 05:27:26;;;;;;;22.95;11.43;;;;;;;10.84;53.95;153962.70;1778543;79;21738;-69
2020/12/23 05:30:02;;;;;;;30.17;12.70;;;;;;;10.44;54.59;153855.23;1789218;80;21174;-69
2020/12/23 05:32:41;;;;;;;26.48;10.35;;;;;;;10.51;54.75;153874.91;1773496;79;21268;-61
2020/12/23 05:35:15;;;;;;;28.83;13.72;;;;;;;10.19;55.35;153789.72;1795366;78;21315;-67
2020/12/23 05:37:49;;;;;;;30.37;11.93;;;;;;;10.45;54.80;153859.16;1791271;79;21175;-64
2020/12/23 05:40:22;;;;;;;24.23;11.25;;;;;;;10.33;55.06;153827.69;1790943;79;21340;-65
2020/12/23 05:42:55;;;;;;;29.85;12.50;;;;;;;10.10;55.24;153766.14;1790901;80;21736;-63
2020/12/23 05:45:28;;;;;;;29.67;13.40;;;;;;;10.24;55.06;153804.12;1765389;80;21190;-62
2020/12/23 05:48:09;;;;;;;29.75;11.43;;;;;;;10.26;55.10;153808.03;1782684;79;21210;-63
2020/12/23 05:51:10;;;;;;;36.75;13.08;;;;;;;10.00;55.36;153741.22;1782261;80;21223;-66
2020/12/23 05:53:46;;;;;;;54.55;15.68;;;;;;;10.31;55.11;153822.44;1791760;79;21198;-68
2020/12/23 05:56:19;;;;;;;37.48;14.45;;;;;;;10.25;55.19;153806.75;1768739;80;21856;-66
2020/12/23 05:58:52;;;;;;;28.98;11.75;;;;;;;10.09;55.64;153764.80;1789048;80;21162;-66
2020/12/23 06:01:37;;;;;;;29.37;12.73;;;;;;;10.09;55.39;153764.80;1744302;80;21815;-70
2020/12/23 06:04:17;;;;;;;37.40;14.85;;;;;;;10.18;55.33;153788.42;1788653;80;21199;-66
2020/12/23 06:06:58;;;;;;;34.83;13.08;;;;;;;10.48;54.87;153865.69;1786955;79;21305;-73
2020/12/23 06:09:38;;;;;;;40.15;15.05;;;;;;;10.06;55.39;153755.64;1787733;78;21292;-68
2020/12/23 06:12:25;;;;;;;37.42;12.43;;;;;;;10.32;54.94;153825.08;1772439;79;21412;-66
2020/12/23 06:15:03;;;;;;;40.17;13.50;;;;;;;10.23;55.29;153800.22;1796576;79;21377;-70
2020/12/23 06:17:42;;;;;;;30.45;13.78;;;;;;;10.34;54.97;153829.03;1776955;79;21840;-75
2020/12/23 06:20:15;;;;;;;30.50;12.93;;;;;;;10.50;54.69;153870.94;1795041;79;21411;-64
2020/12/23 06:22:50;;;;;;;30.05;11.57;;;;;;;10.34;54.82;153830.33;1803066;79;21356;-69
2020/12/23 06:25:27;;;;;;;32.93;14.58;;;;;;;10.32;54.76;153823.78;1770801;79;21874;-68
2020/12/23 06:28:01;;;;;;;26.90;11.43;;;;;;;10.26;55.19;153809.37;1807275;78;21327;-65
2020/12/23 06:30:33;;;;;;;28.90;11.63;;;;;;;10.39;54.82;153842.11;1808452;79;21730;-68
2020/12/23 06:33:06;;;;;;;32.15;12.43;;;;;;;10.09;55.12;153763.52;1808645;79;21357;-67
2020/12/23 06:35:38;;;;;;;31.93;13.43;;;;;;;9.97;55.76;153733.31;1808387;79;21235;-68
2020/12/23 06:38:26;;;;;;;26.85;11.90;;;;;;;10.50;54.74;153870.94;1809035;79;21224;-68
2020/12/23 06:41:00;;;;;;;28.25;12.20;;;;;;;10.36;55.09;153834.23;1808681;79;21802;-66
2020/12/23 06:43:54;;;;;;;29.37;13.13;;;;;;;10.41;54.91;153848.70;1808595;79;21212;-70
2020/12/23 06:46:27;;;;;;;30.80;12.18;;;;;;;10.10;55.39;153766.14;1803637;79;21183;-69
2020/12/23 06:49:14;;;;;;;27.67;13.30;;;;;;;10.27;55.36;153812.00;1798054;80;21188;-66
2020/12/23 06:51:47;;;;;;;23.83;9.93;;;;;;;10.43;54.94;153852.63;1803226;79;21325;-67
2020/12/23 06:54:46;;;;;;;28.77;12.47;;;;;;;9.91;55.47;153716.28;1808962;79;21194;-67
2020/12/23 06:57:44;;;;;;;28.52;10.58;;;;;;;10.34;55.21;153830.33;1808544;78;21384;-67
2020/12/23 07:00:28;;;;;;;27.70;10.05;;;;;;;10.29;55.20;153817.25;1808750;79;21186;-66
2020/12/23 07:03:01;;;;;;;31.25;12.60;;;;;;;10.17;55.11;153785.80;1804968;79;22007;-67
2020/12/23 07:05:41;;;;;;;31.10;12.18;;;;;;;10.28;55.25;153814.63;1797927;80;21387;-66
2020/12/23 07:08:14;;;;;;;27.22;10.65;;;;;;;10.35;54.99;153832.95;1797759;79;21182;-67
2020/12/23 07:10:50;;;;;;;29.30;11.70;;;;;;;10.39;55.19;153843.45;1798232;80;21182;-69
2020/12/23 07:13:22;;;;;;;29.75;11.93;;;;;;;10.32;55.34;153825.08;1797290;80;21356;-69
2020/12/23 07:15:59;;;;;;;33.78;11.65;;;;;;;10.36;55.44;153835.58;1794804;80;21312;-67
2020/12/23 07:18:31;;;;;;;36.00;12.43;;;;;;;10.16;55.45;153783.17;1795214;80;21356;-68
2020/12/23 07:21:06;;;;;;;25.95;10.82;;;;;;;10.47;55.14;153864.41;1794835;80;21320;-68
2020/12/23 07:23:40;;;;;;;29.27;11.15;;;;;;;10.28;55.33;153814.63;1794895;80;21824;-68
2020/12/23 07:26:12;;;;;;;27.60;10.85;;;;;;;10.37;55.47;153836.86;1775424;80;21201;-68
2020/12/23 07:28:45;;;;;;;24.75;11.08;;;;;;;10.45;55.42;153857.87;1721002;82;21389;-68
2020/12/23 07:31:18;;;;;;;28.52;11.55;;;;;;;10.70;54.86;153924.70;1721553;82;21397;-68
2020/12/23 07:33:50;;;;;;;28.50;10.82;;;;;;;10.51;54.89;153873.56;1752224;82;21338;-68
2020/12/23 07:36:24;;;;;;;25.10;10.65;;;;;;;10.29;55.12;153817.25;1751739;82;21976;-68
2020/12/23 07:38:56;;;;;;;20.27;8.53;;;;;;;10.37;55.25;153838.20;1721921;82;21271;-69
2020/12/23 07:41:28;;;;;;;22.10;9.70;;;;;;;10.45;55.09;153857.87;1751911;82;21334;-70
2020/12/23 07:44:01;;;;;;;23.42;8.60;;;;;;;10.46;55.13;153860.48;1751979;82;21884;-68
2020/12/23 07:46:33;;;;;;;22.58;10.08;;;;;;;10.33;55.32;153827.69;1727921;82;21914;-68
2020/12/23 07:49:05;;;;;;;23.92;9.65;;;;;;;10.11;55.61;153768.77;1769387;80;21357;-68
2020/12/23 07:51:39;;;;;;;19.05;8.03;;;;;;;10.35;55.36;153832.95;1769507;81;21215;-69
2020/12/23 07:54:13;;;;;;;26.02;10.20;;;;;;;10.25;55.20;153805.41;1769550;81;21344;-68
2020/12/23 07:56:45;;;;;;;22.42;10.08;;;;;;;10.48;55.15;153867.03;1769444;81;21591;-69
2020/12/23 07:59:26;;;;;;;20.50;8.65;;;;;;;10.30;55.15;153818.53;1769705;80;21377;-67
2020/12/23 08:01:59;;;;;;;25.37;10.58;;;;;;;10.28;55.49;153813.28;1769637;81;21344;-70
2020/12/23 08:04:31;;;;;;;25.37;10.63;;;;;;;10.48;55.20;153867.03;1769112;81;21387;-70
2020/12/23 08:07:04;;;;;;;22.62;10.48;;;;;;;10.52;55.24;153876.19;1769448;81;21392;-69
2020/12/23 08:09:36;;;;;;;19.82;9.20;;;;;;;10.65;55.08;153911.56;1769658;81;21376;-72
2020/12/23 08:12:08;;;;;;;18.52;8.38;;;;;;;10.49;54.99;153868.31;1769456;81;21407;-69
2020/12/23 08:14:42;;;;;;;21.52;8.85;;;;;;;10.54;54.98;153882.73;1769479;81;21266;-69
2020/12/23 08:17:24;;;;;;;23.15;10.75;;;;;;;10.60;54.88;153898.48;1769448;80;22263;-69
2020/12/23 08:20:06;;;;;;;;;;;;;;;10.77;55.01;153941.73;1772025;81;21718;-70
2020/12/23 08:22:41;;;;;;;25.75;9.50;;;;;;;10.47;55.34;153863.13;1769526;80;20357;-69
2020/12/23 08:25:18;;;;;;;23.38;9.80;;;;;;;10.57;55.33;153890.61;1769560;81;21333;-67
2020/12/23 08:27:51;;;;;;;20.75;8.95;;;;;;;10.96;55.53;153994.17;1769431;81;21202;-67
2020/12/23 08:30:29;;;;;;;23.67;9.80;;;;;;;10.79;59.92;153948.28;1769548;80;22181;-67
2020/12/23 08:33:13;;;;;;;23.42;10.80;;;;;;;10.05;68.13;153753.02;1769652;80;22025;-67
2020/12/23 08:35:46;;;;;;;26.52;10.58;;;;;;;10.16;66.91;153783.17;1769191;81;21215;-67
2020/12/23 08:38:20;;;;;;;20.25;9.80;;;;;;;11.04;69.07;154013.84;1769648;81;21190;-67
2020/12/23 08:40:58;;;;;;;25.20;10.82;;;;;;;14.17;100.00;154841.31;1769661;81;21195;-68
2020/12/23 08:43:31;;;;;;;23.57;10.00;;;;;;;24.77;100.00;157658.47;1769310;81;21392;-68
2020/12/23 08:46:03;;;;;;;25.92;10.23;;;;;;;19.79;62.19;156329.94;1779788;80;21340;-67
2020/12/23 08:48:36;;;;;;;23.10;10.50;;;;;;;19.36;58.61;156217.62;1794930;80;21217;-68
2020/12/23 08:51:08;;;;;;;26.30;10.85;;;;;;;19.18;54.26;156170.09;1795133;80;21316;-68
2020/12/23 08:53:41;;;;;;;24.27;9.83;;;;;;;18.77;53.96;156060.44;1795036;80;21875;-68
2020/12/23 08:56:34;;;;;;;21.85;9.35;;;;;;;18.70;53.13;156040.63;1794840;80;21218;-67
2020/12/23 08:59:08;;;;;;;19.65;8.58;;;;;;;18.94;54.20;156104.00;1792355;79;21229;-67
2020/12/23 09:01:40;;;;;;;20.57;9.80;;;;;;;18.15;54.30;155895.39;1794878;80;21685;-68
2020/12/23 09:04:13;;;;;;;22.15;11.03;;;;;;;20.18;85.37;156434.41;1794732;80;21229;-68
2020/12/23 09:06:47;;;;;;;23.67;10.35;;;;;;;19.44;63.41;156238.75;1795041;80;21241;-69
2020/12/23 09:09:23;;;;;;;29.12;11.48;;;;;;;18.32;79.40;155941.63;1795037;80;21237;-69
2020/12/23 09:11:57;;;;;;;24.57;10.53;;;;;;;18.87;76.66;156086.83;1794674;80;21236;-69
2020/12/23 09:14:39;;;;;;;22.32;10.35;;;;;;;18.68;72.08;156035.33;1794960;80;21352;-68
2020/12/23 09:17:22;;;;;;;24.05;10.60;;;;;;;18.10;59.84;155880.87;1795100;79;21918;-70
2020/12/23 09:20:04;;;;;;;30.02;11.88;;;;;;;18.11;64.00;155883.52;1767853;80;21352;-69
2020/12/23 09:22:38;;;;;;;25.88;11.30;;;;;;;18.08;100.00;155875.58;1795157;80;21713;-69
2020/12/23 09:25:22;;;;;;;24.65;10.32;;;;;;;20.24;85.09;156451.59;1794906;78;21208;-69
2020/12/23 09:27:55;;;;;;;25.30;9.80;;;;;;;36.90;100.00;160908.02;1794826;80;21462;-68
2020/12/23 09:30:53;;;;;;;24.95;10.82;;;;;;;23.71;100.00;157375.88;1795085;80;21257;-69
2020/12/23 09:33:25;;;;;;;25.95;10.15;;;;;;;20.77;100.00;156591.78;1794818;80;21897;-67
2020/12/23 09:36:06;;;;;;;29.55;12.53;;;;;;;19.06;100.00;156137.00;1795036;80;21856;-68
2020/12/23 09:38:40;;;;;;;24.45;10.98;;;;;;;19.78;95.75;156327.30;1795127;80;21387;-69
2020/12/23 09:41:14;;;;;;;27.00;11.68;;;;;;;33.55;53.13;160007.73;1794770;80;21221;-68
2020/12/23 09:43:46;;;;;;;23.30;11.08;;;;;;;33.57;53.17;160013.03;1795122;80;21336;-69
2020/12/23 09:46:19;;;;;;;25.85;10.18;;;;;;;32.31;64.46;159676.52;1791901;80;21237;-68
2020/12/23 09:48:51;;;;;;;30.97;11.25;;;;;;;32.33;50.10;159681.86;1789368;80;21383;-71
2020/12/23 09:51:23;;;;;;;32.17;10.30;;;;;;;32.29;49.45;159669.86;1789433;80;21190;-68
2020/12/23 09:53:56;;;;;;;30.60;11.60;;;;;;;32.00;50.64;159591.09;1789312;80;22163;-68
2020/12/23 09:56:28;;;;;;;24.23;11.05;;;;;;;31.80;48.00;159537.73;1789077;80;21713;-68
2020/12/23 09:59:00;;;;;;;27.90;11.68;;;;;;;31.91;47.67;159567.08;1789259;80;21380;-68
2020/12/23 10:01:34;;;;;;;24.90;11.22;;;;;;;31.33;50.16;159413.62;1789220;80;21328;-69
2020/12/23 10:04:06;;;;;;;28.98;11.83;;;;;;;31.41;47.75;159435.00;1789313;79;21348;-69
2020/12/23 10:06:38;;;;;;;24.15;11.57;;;;;;;34.21;100.00;160185.47;1789127;79;21923;-70
2020/12/23 10:09:11;;;;;;;26.75;12.63;;;;;;;34.13;32.43;160164.11;1789381;80;21438;-70
2020/12/23 10:11:43;;;;;;;25.12;9.63;;;;;;;33.92;32.67;160107.95;1789070;80;21198;-70
2020/12/23 10:14:15;;;;;;;24.70;10.50;;;;;;;32.85;35.99;159820.75;1789630;80;22194;-70
2020/12/23 10:16:47;;;;;;;23.45;11.28;;;;;;;32.64;31.97;159764.64;1792889;78;21210;-70
2020/12/23 10:19:20;;;;;;;29.95;12.23;;;;;;;32.36;31.83;159689.87;1821548;79;21335;-69
2020/12/23 10:21:52;;;;;;;28.07;10.72;;;;;;;32.04;31.59;159603.09;1821333;79;21209;-70
2020/12/23 10:24:24;;;;;;;31.37;12.65;;;;;;;31.96;31.45;159581.75;1823207;79;21189;-69
2020/12/23 10:26:57;;;;;;;27.77;11.90;;;;;;;31.78;31.39;159532.39;1779182;79;21848;-68
2020/12/23 10:29:29;;;;;;;25.43;10.85;;;;;;;31.79;31.32;159535.06;1753071;81;21327;-68
2020/12/23 10:32:04;;;;;;;30.43;12.13;;;;;;;31.51;31.53;159460.30;1785196;78;21345;-72
2020/12/23 10:34:36;;;;;;;25.95;11.73;;;;;;;31.32;31.39;159409.64;1786521;78;21356;-69
2020/12/23 10:37:09;;;;;;;27.85;12.25;;;;;;;31.35;31.32;159418.97;1783579;79;21391;-69
2020/12/23 10:39:45;;;;;;;32.70;12.70;;;;;;;31.20;31.52;159376.28;1785375;79;21907;-69
2020/12/23 10:42:25;;;;;;;30.95;14.35;;;;;;;31.14;31.44;159360.30;1785876;80;21174;-67
2020/12/23 10:45:03;;;;;;;28.70;13.28;;;;;;;30.78;31.73;159264.27;1786915;79;21868;-67
2020/12/23 10:47:37;;;;;;;25.15;12.03;;;;;;;30.37;31.89;159154.94;1785556;79;21169;-69
2020/12/23 10:53:03;;;;;;;27.30;12.90;;;;;;;29.92;32.21;159033.63;1786636;78;21206;-70
2020/12/23 10:55:37;;;;;;;29.20;13.58;;;;;;;29.79;32.34;159000.34;1785857;80;21297;-69
2020/12/23 10:58:10;;;;;;;33.08;14.07;;;;;;;30.09;32.09;159079.00;1787922;80;21856;-67
2020/12/23 11:00:42;;;;;;;30.72;14.10;;;;;;;29.93;32.16;159037.61;1786949;80;21360;-69
2020/12/23 11:03:15;;;;;;;32.13;14.23;;;;;;;29.73;32.41;158983.03;1785770;80;21289;-68
2020/12/23 11:05:47;;;;;;;33.15;15.25;;;;;;;29.76;32.46;158992.34;1784302;80;21226;-69
2020/12/23 11:08:20;;;;;;;31.55;14.18;;;;;;;29.74;32.42;158985.70;1785815;78;21978;-67
2020/12/23 11:10:53;;;;;;;27.82;12.95;;;;;;;29.67;32.37;158967.03;1778474;78;21206;-68
2020/12/23 11:13:29;;;;;;;39.08;16.70;;;;;;;29.70;32.43;158975.03;1785887;80;21356;-70
2020/12/23 11:16:02;;;;;;;33.20;14.78;;;;;;;29.65;32.38;158963.05;1787251;78;21380;-72
2020/12/23 11:18:34;;;;;;;32.70;14.38;;;;;;;29.50;32.48;158921.78;1785467;79;21184;-68
2020/12/23 11:21:08;;;;;;;30.27;13.18;;;;;;;29.57;32.46;158941.70;1790922;78;21873;-68
2020/12/23 11:23:42;;;;;;;28.27;13.13;;;;;;;29.51;32.44;158924.44;1779259;79;21218;-70
2020/12/23 11:26:20;;;;;;;30.15;14.13;;;;;;;29.55;32.78;158936.41;1779422;80;21182;-69
2020/12/23 11:28:56;;;;;;;30.15;13.75;;;;;;;29.51;32.59;158924.44;1784788;79;21362;-68
2020/12/23 11:31:28;;;;;;;30.48;13.93;;;;;;;29.71;32.57;158977.69;1792448;79;21254;-66
2020/12/23 11:34:01;;;;;;;23.67;12.20;;;;;;;29.80;32.27;159002.97;1790976;79;21856;-65
2020/12/23 11:36:33;;;;;;;35.20;16.82;;;;;;;29.85;32.28;159016.31;1791225;80;21207;-66
2020/12/23 11:39:06;;;;;;;29.45;13.08;;;;;;;29.78;32.29;158997.69;1790504;80;21178;-64
2020/12/23 11:41:39;;;;;;;33.02;14.65;;;;;;;29.77;32.30;158995.02;1790893;79;21219;-66
2020/12/23 11:44:13;;;;;;;33.18;17.42;;;;;;;29.49;32.86;158919.09;1784221;78;21260;-69
2020/12/23 11:46:49;;;;;;;28.23;13.18;;;;;;;29.51;32.65;158925.75;1785047;78;21373;-66
2020/12/23 11:49:22;;;;;;;28.57;12.40;;;;;;;29.41;32.77;158899.12;1738896;81;21328;-66